Time;durP1;ratioP1;P1;durP2;ratioP2;P2;SDS_P1;SDS_P2;PMS_P1;PMS_P2;Temp;Humidity;BMP_temperature;BMP_pressure;BME280_temperature;BME280_humidity;BME280_pressure;Samples;Min_cycle;Max_cycle;Signal;HPM_P1;HPM_P2
2023/07/20 00:00:07;;;;;;;5.67;3.90;;;17.20;88.60;;;;;;5003654;28;20463;-79
2023/07/20 00:02:34;;;;;;;4.83;4.33;;;17.10;89.60;;;;;;5003849;28;20506;-79
2023/07/20 00:05:01;;;;;;;6.13;4.33;;;17.00;89.70;;;;;;5003944;28;20425;-78
2023/07/20 00:07:29;;;;;;;9.63;5.10;;;17.10;90.20;;;;;;5002499;28;20509;-77
2023/07/20 00:09:57;;;;;;;8.67;5.10;;;17.10;90.00;;;;;;5003384;28;20437;-79
2023/07/20 00:12:24;;;;;;;5.20;4.70;;;17.10;90.20;;;;;;5003539;28;20560;-77
2023/07/20 00:14:53;;;;;;;7.90;5.33;;;17.00;90.40;;;;;;5002394;28;20526;-78
2023/07/20 00:17:20;;;;;;;10.23;5.97;;;17.00;91.00;;;;;;5003473;28;20435;-78
2023/07/20 00:19:48;;;;;;;7.47;6.10;;;16.90;91.00;;;;;;5003926;28;20448;-78
2023/07/20 00:22:14;;;;;;;7.00;5.20;;;16.90;91.50;;;;;;5003752;28;20420;-80
2023/07/20 00:24:42;;;;;;;6.40;5.80;;;16.80;91.90;;;;;;5003668;28;20791;-79
2023/07/20 00:27:08;;;;;;;7.70;5.93;;;16.80;92.20;;;;;;5003759;28;20510;-79
2023/07/20 00:29:36;;;;;;;7.37;6.20;;;16.80;92.10;;;;;;5003998;28;20440;-80
2023/07/20 00:32:04;;;;;;;6.70;6.10;;;16.70;92.10;;;;;;4987326;28;20435;-77
2023/07/20 00:34:33;;;;;;;8.43;5.10;;;16.80;92.20;;;;;;5008451;28;20710;-78
2023/07/20 00:37:00;;;;;;;6.47;5.33;;;16.70;92.60;;;;;;5016971;28;20418;-78
2023/07/20 00:39:27;;;;;;;5.87;5.27;;;16.50;92.70;;;;;;5017699;28;20477;-77
2023/07/20 00:41:54;;;;;;;6.37;5.80;;;16.60;93.30;;;;;;5013401;28;20695;-77
2023/07/20 00:44:21;;;;;;;6.97;5.77;;;16.60;92.80;;;;;;5003605;28;20471;-76
2023/07/20 00:46:48;;;;;;;6.77;6.07;;;16.30;93.00;;;;;;5003914;28;20471;-76
2023/07/20 00:49:16;;;;;;;6.87;6.27;;;16.50;92.80;;;;;;5003404;28;20447;-77
2023/07/20 00:51:44;;;;;;;9.20;5.10;;;16.50;93.00;;;;;;4986460;28;20441;-77
2023/07/20 00:54:11;;;;;;;6.23;5.63;;;16.50;93.00;;;;;;5002348;28;20497;-75
2023/07/20 00:56:39;;;;;;;8.17;5.77;;;16.50;92.90;;;;;;5003353;28;20435;-76
2023/07/20 00:59:06;;;;;;;7.43;6.73;;;16.50;92.90;;;;;;5002582;28;20470;-75
2023/07/20 01:01:34;;;;;;;9.60;6.90;;;16.50;93.50;;;;;;5003538;28;20442;-76
2023/07/20 01:04:01;;;;;;;8.13;5.37;;;16.50;92.90;;;;;;5003409;28;20470;-77
2023/07/20 01:06:41;;;;;;;7.50;5.70;;;16.50;93.00;;;;;;5003206;28;20444;-76
2023/07/20 01:09:28;;;;;;;6.60;5.47;;;16.50;93.00;;;;;;4985257;28;20494;-77
2023/07/20 01:12:13;;;;;;;6.93;6.23;;;16.50;92.80;;;;;;5003309;28;20631;-76
2023/07/20 01:14:40;;;;;;;5.87;5.30;;;16.50;93.20;;;;;;5002876;28;20811;-76
2023/07/20 01:17:07;;;;;;;7.87;7.00;;;16.50;93.20;;;;;;5003060;28;20571;-76
2023/07/20 01:19:34;;;;;;;8.50;6.60;;;16.50;92.90;;;;;;5002092;28;20424;-75
2023/07/20 01:22:21;;;;;;;8.73;6.40;;;16.50;93.10;;;;;;5002778;28;20443;-76
2023/07/20 01:25:09;;;;;;;7.03;6.40;;;16.50;92.90;;;;;;5003042;28;20656;-76
2023/07/20 01:27:44;;;;;;;8.73;7.33;;;16.50;93.40;;;;;;5003112;28;20487;-77
2023/07/20 01:30:46;;;;;;;6.03;5.53;;;16.40;93.30;;;;;;5002944;28;20486;-75
2023/07/20 01:33:15;;;;;;;6.90;6.20;;;16.50;93.30;;;;;;5003096;28;20457;-76
2023/07/20 01:35:44;;;;;;;9.77;5.80;;;16.50;92.80;;;;;;5002300;28;20532;-76
2023/07/20 01:38:13;;;;;;;7.30;5.97;;;16.50;92.30;;;;;;5002776;28;20424;-76
2023/07/20 01:40:41;;;;;;;8.33;7.63;;;16.40;92.80;;;;;;5001820;28;20463;-76
2023/07/20 01:43:08;;;;;;;7.50;6.37;;;16.40;93.30;;;;;;5003833;28;20462;-77
2023/07/20 01:45:35;;;;;;;7.80;6.97;;;16.30;93.30;;;;;;5003701;28;20486;-76
2023/07/20 01:48:03;;;;;;;6.73;6.13;;;16.10;93.30;;;;;;5002597;28;20439;-77
2023/07/20 01:50:30;;;;;;;6.17;5.57;;;16.10;93.10;;;;;;5002236;28;20464;-76
2023/07/20 01:52:57;;;;;;;7.43;6.70;;;16.00;93.60;;;;;;5000923;28;20449;-77
2023/07/20 01:55:24;;;;;;;6.53;6.03;;;15.90;93.50;;;;;;5001980;28;20513;-76
2023/07/20 01:57:51;;;;;;;8.33;6.10;;;15.90;93.70;;;;;;5001955;28;20442;-76
2023/07/20 02:00:23;;;;;;;6.97;6.27;;;15.70;93.50;;;;;;5002220;28;20590;-76
2023/07/20 02:02:50;;;;;;;8.47;6.93;;;15.70;93.70;;;;;;5002272;28;20475;-77
2023/07/20 02:05:18;;;;;;;9.03;7.10;;;15.60;93.80;;;;;;5002123;28;20590;-76
2023/07/20 02:07:44;;;;;;;8.20;6.87;;;15.60;94.00;;;;;;5001843;28;20410;-77
2023/07/20 02:10:12;;;;;;;7.50;6.50;;;15.50;94.30;;;;;;5002097;28;20443;-76
2023/07/20 02:12:39;;;;;;;7.30;6.67;;;15.50;94.50;;;;;;5000860;28;20446;-76
2023/07/20 02:15:06;;;;;;;7.87;7.17;;;15.40;94.50;;;;;;4985053;28;20541;-76
2023/07/20 02:17:33;;;;;;;10.43;7.03;;;15.50;94.50;;;;;;5002927;28;20435;-77
2023/07/20 02:20:01;;;;;;;8.67;7.20;;;15.40;94.40;;;;;;5002500;28;20482;-76
2023/07/20 02:22:28;;;;;;;7.93;7.23;;;15.40;94.50;;;;;;4985625;28;20486;-77
2023/07/20 02:24:55;;;;;;;7.10;6.50;;;15.40;94.50;;;;;;5001694;28;20443;-77
2023/07/20 02:27:22;;;;;;;8.10;6.93;;;15.40;94.60;;;;;;5002448;28;20614;-76
2023/07/20 02:29:50;;;;;;;8.97;8.17;;;15.40;94.60;;;;;;5002774;28;20443;-76
2023/07/20 02:32:17;;;;;;;8.83;7.90;;;15.40;95.00;;;;;;5004230;28;20491;-77
2023/07/20 02:34:45;;;;;;;8.43;7.83;;;15.30;95.20;;;;;;5000873;28;20461;-75
2023/07/20 02:37:12;;;;;;;8.57;7.87;;;15.40;95.00;;;;;;5002108;28;20410;-76
2023/07/20 02:39:40;;;;;;;9.70;7.50;;;15.30;95.00;;;;;;5000970;28;20503;-77
2023/07/20 02:42:07;;;;;;;9.27;8.40;;;15.30;95.20;;;;;;5001844;28;20441;-76
2023/07/20 02:44:36;;;;;;;8.53;7.60;;;15.30;95.20;;;;;;5001557;28;20436;-77
2023/07/20 02:47:03;;;;;;;9.40;8.50;;;15.30;95.40;;;;;;5000957;28;20502;-76
2023/07/20 02:49:31;;;;;;;8.80;7.83;;;15.30;95.20;;;;;;5000331;28;20502;-77
2023/07/20 02:51:58;;;;;;;12.00;7.90;;;15.20;95.30;;;;;;4984691;28;20764;-77
2023/07/20 02:54:25;;;;;;;10.47;8.47;;;15.30;94.90;;;;;;5001015;28;20432;-76
2023/07/20 02:56:52;;;;;;;9.80;7.90;;;15.30;94.80;;;;;;5002249;28;20502;-77
2023/07/20 02:59:21;;;;;;;10.27;9.27;;;15.20;95.00;;;;;;5002095;28;20486;-76
2023/07/20 03:01:48;;;;;;;7.60;7.00;;;15.20;95.00;;;;;;5001273;28;20506;-76
2023/07/20 03:04:16;;;;;;;8.63;7.73;;;15.20;95.10;;;;;;5000949;28;20422;-77
2023/07/20 03:06:43;;;;;;;8.70;7.80;;;15.20;95.20;;;;;;5001254;28;20490;-76
2023/07/20 03:09:10;;;;;;;11.43;8.30;;;15.20;95.10;;;;;;5001237;28;20436;-76
2023/07/20 03:11:37;;;;;;;8.00;7.30;;;15.20;95.10;;;;;;4999586;28;20466;-77
2023/07/20 03:14:04;;;;;;;7.63;6.93;;;15.10;95.00;;;;;;5001514;28;20439;-76
2023/07/20 03:16:32;;;;;;;8.63;7.83;;;15.20;95.00;;;;;;5000971;28;20687;-76
2023/07/20 03:19:00;;;;;;;10.23;7.67;;;15.10;95.20;;;;;;5001280;28;20409;-76
2023/07/20 03:21:27;;;;;;;10.00;8.27;;;15.10;95.20;;;;;;5000367;28;20446;-78
2023/07/20 03:23:54;;;;;;;15.50;8.87;;;15.10;95.20;;;;;;5002624;28;20425;-76
2023/07/20 03:26:22;;;;;;;9.77;8.33;;;15.10;95.20;;;;;;5005316;28;20726;-77
2023/07/20 03:28:49;;;;;;;8.90;8.00;;;15.30;95.10;;;;;;5005172;28;20459;-77
2023/07/20 03:31:16;;;;;;;12.10;9.80;;;15.10;94.90;;;;;;5005304;28;20445;-77
2023/07/20 03:33:43;;;;;;;8.40;7.13;;;15.20;95.00;;;;;;5003888;28;20477;-76
2023/07/20 03:36:10;;;;;;;13.50;7.23;;;15.20;94.90;;;;;;5004589;28;20450;-77
2023/07/20 03:38:37;;;;;;;9.07;8.17;;;15.30;94.60;;;;;;5003694;28;20463;-78
2023/07/20 03:41:04;;;;;;;8.50;7.80;;;15.30;94.30;;;;;;4987854;28;20483;-77
2023/07/20 03:43:31;;;;;;;8.70;7.80;;;15.30;94.30;;;;;;5003380;28;20463;-76
2023/07/20 03:45:58;;;;;;;7.80;6.77;;;15.30;94.40;;;;;;5008792;28;20444;-78
2023/07/20 03:48:25;;;;;;;9.00;7.83;;;15.30;94.30;;;;;;5017509;28;20471;-76
2023/07/20 03:50:53;;;;;;;9.77;7.50;;;15.30;94.30;;;;;;5015625;28;20447;-76
2023/07/20 03:53:21;;;;;;;7.57;6.87;;;15.40;94.20;;;;;;5002930;28;20444;-76
2023/07/20 03:55:49;;;;;;;8.47;7.30;;;15.40;94.00;;;;;;4986824;28;20579;-75
2023/07/20 03:58:17;;;;;;;7.40;6.27;;;15.40;94.00;;;;;;5003280;28;20684;-76
2023/07/20 04:00:46;;;;;;;8.03;7.20;;;15.50;93.50;;;;;;5002433;28;20608;-76
2023/07/20 04:03:14;;;;;;;6.93;6.43;;;15.70;93.70;;;;;;4986346;28;20511;-76
2023/07/20 04:05:42;;;;;;;6.77;6.20;;;15.90;93.30;;;;;;5003808;28;20485;-76
2023/07/20 04:08:10;;;;;;;7.07;6.43;;;16.10;92.80;;;;;;5003842;28;20439;-76
2023/07/20 04:10:38;;;;;;;8.07;7.37;;;16.30;92.70;;;;;;5003740;28;20436;-75
2023/07/20 04:13:05;;;;;;;9.33;5.60;;;16.70;92.20;;;;;;5004169;28;20519;-76
2023/07/20 04:15:32;;;;;;;24.63;9.07;;;16.70;91.70;;;;;;5002130;28;20475;-76
2023/07/20 04:18:00;;;;;;;5.90;5.37;;;16.90;91.40;;;;;;5004281;28;20519;-75
2023/07/20 04:20:27;;;;;;;10.90;6.50;;;17.00;91.40;;;;;;4987283;28;20463;-75
2023/07/20 04:22:55;;;;;;;14.13;6.47;;;17.10;90.80;;;;;;5004172;28;20435;-77
2023/07/20 04:25:22;;;;;;;8.67;7.77;;;17.20;90.80;;;;;;5003190;28;20474;-78
2023/07/20 04:27:48;;;;;;;12.37;6.67;;;17.20;91.10;;;;;;5004306;28;20482;-76
2023/07/20 04:30:20;;;;;;;10.60;6.40;;;17.20;90.80;;;;;;5003838;28;20448;-76
2023/07/20 04:32:47;;;;;;;12.83;7.50;;;17.10;91.00;;;;;;5003889;28;20430;-76
2023/07/20 04:35:49;;;;;;;8.77;6.33;;;17.30;91.10;;;;;;4985184;28;20482;-76
2023/07/20 04:38:17;;;;;;;8.47;7.40;;;17.50;90.40;;;;;;4986139;28;20734;-76
2023/07/20 04:40:46;;;;;;;10.47;7.60;;;17.40;90.70;;;;;;4986827;28;20443;-76
2023/07/20 04:43:14;;;;;;;7.97;7.23;;;17.50;90.40;;;;;;5003747;28;20431;-77
2023/07/20 04:45:41;;;;;;;9.70;7.80;;;17.70;90.50;;;;;;5003408;28;20478;-76
2023/07/20 04:48:13;;;;;;;13.70;7.47;;;17.60;90.30;;;;;;5003042;28;20444;-78
2023/07/20 04:50:41;;;;;;;13.10;8.07;;;17.70;90.40;;;;;;5002987;28;20417;-78
2023/07/20 04:53:10;;;;;;;8.50;6.43;;;17.70;90.10;;;;;;5003128;28;20640;-77
2023/07/20 04:55:38;;;;;;;9.90;7.07;;;17.80;90.40;;;;;;5002631;28;20644;-78
2023/07/20 04:58:06;;;;;;;9.43;7.60;;;17.80;90.00;;;;;;5002790;28;20463;-76
2023/07/20 05:00:34;;;;;;;7.53;6.60;;;17.80;90.50;;;;;;5003026;28;20435;-76
2023/07/20 05:03:01;;;;;;;10.20;6.63;;;17.90;89.60;;;;;;5002556;28;20429;-77
2023/07/20 05:05:28;;;;;;;8.20;6.27;;;17.90;89.90;;;;;;5002591;28;20453;-77
2023/07/20 05:07:55;;;;;;;9.30;7.77;;;18.00;90.40;;;;;;5002699;28;20436;-76
2023/07/20 05:10:23;;;;;;;7.00;6.03;;;18.10;88.30;;;;;;5001622;28;20473;-76
2023/07/20 05:12:50;;;;;;;11.73;6.97;;;18.20;88.10;;;;;;5002621;28;20445;-77
2023/07/20 05:15:17;;;;;;;8.27;7.40;;;18.30;88.40;;;;;;5002328;28;20853;-77
2023/07/20 05:17:45;;;;;;;11.23;7.47;;;18.20;88.10;;;;;;5002247;28;20410;-77
2023/07/20 05:20:12;;;;;;;9.83;7.00;;;18.10;88.80;;;;;;5002668;28;20442;-78
2023/07/20 05:22:39;;;;;;;8.27;7.57;;;18.20;89.10;;;;;;5002154;28;20494;-77
2023/07/20 05:25:08;;;;;;;10.67;6.67;;;18.10;88.50;;;;;;5002219;28;20530;-78
2023/07/20 05:27:37;;;;;;;12.00;8.40;;;18.00;88.90;;;;;;5001639;28;20507;-75
2023/07/20 05:30:07;;;;;;;8.07;7.13;;;18.00;89.00;;;;;;5002227;28;20414;-77
2023/07/20 05:32:34;;;;;;;8.37;6.80;;;18.10;88.40;;;;;;5002101;28;20446;-77
2023/07/20 05:35:01;;;;;;;10.10;7.93;;;18.30;88.90;;;;;;5001772;28;20490;-77
2023/07/20 05:37:28;;;;;;;11.80;7.17;;;18.00;89.00;;;;;;5002206;28;20410;-78
2023/07/20 05:39:57;;;;;;;11.30;8.67;;;17.90;88.10;;;;;;5001947;28;20443;-77
2023/07/20 05:42:24;;;;;;;10.17;7.77;;;17.80;89.00;;;;;;4984614;28;20466;-80
2023/07/20 05:44:52;;;;;;;8.70;7.43;;;17.90;89.00;;;;;;5005712;28;20439;-76
2023/07/20 05:47:19;;;;;;;10.13;7.60;;;18.00;88.90;;;;;;5002242;28;20470;-75
2023/07/20 05:49:47;;;;;;;8.17;7.47;;;18.00;88.80;;;;;;5001531;28;20441;-79
2023/07/20 05:52:14;;;;;;;14.67;7.97;;;18.10;88.70;;;;;;5000827;28;20484;-77
2023/07/20 05:54:41;;;;;;;9.57;8.57;;;18.10;88.20;;;;;;5002699;28;20438;-75
2023/07/20 05:57:08;;;;;;;10.10;8.70;;;18.10;88.40;;;;;;5002489;28;20449;-78
2023/07/20 05:59:35;;;;;;;14.10;8.97;;;17.90;89.20;;;;;;5002352;28;20442;-77
2023/07/20 06:02:03;;;;;;;9.20;8.30;;;18.10;89.10;;;;;;5001803;28;20783;-76
2023/07/20 06:04:31;;;;;;;19.40;9.30;;;18.30;87.80;;;;;;5005310;28;20502;-80
2023/07/20 06:06:58;;;;;;;12.80;9.43;;;18.40;87.20;;;;;;5004256;28;20425;-78
2023/07/20 06:09:26;;;;;;;11.47;10.47;;;18.30;87.80;;;;;;5002465;28;20443;-76
2023/07/20 06:11:53;;;;;;;10.93;9.50;;;18.40;87.80;;;;;;5003264;28;20443;-75
2023/07/20 06:14:21;;;;;;;14.83;9.40;;;18.50;86.90;;;;;;5002054;28;20559;-80
2023/07/20 06:16:47;;;;;;;14.83;10.00;;;18.80;86.40;;;;;;4985164;28;20473;-76
2023/07/20 06:19:15;;;;;;;15.23;9.33;;;19.50;83.40;;;;;;5002621;28;20410;-78
2023/07/20 06:21:43;;;;;;;11.03;9.17;;;20.00;82.40;;;;;;5002748;28;20507;-78
2023/07/20 06:24:10;;;;;;;11.43;9.10;;;20.30;80.00;;;;;;5001609;28;20414;-79
2023/07/20 06:26:40;;;;;;;9.80;8.40;;;20.20;79.80;;;;;;5000756;28;20445;-77
2023/07/20 06:29:08;;;;;;;10.60;7.70;;;20.10;80.00;;;;;;5001140;28;20438;-77
2023/07/20 06:31:36;;;;;;;12.13;8.07;;;20.10;79.90;;;;;;5002178;28;20452;-78
2023/07/20 06:34:03;;;;;;;7.63;6.83;;;19.80;80.90;;;;;;5001167;28;20436;-73
2023/07/20 06:36:31;;;;;;;9.60;8.00;;;19.90;80.00;;;;;;5000884;28;20450;-80
2023/07/20 06:38:57;;;;;;;11.37;8.13;;;19.70;80.20;;;;;;5001157;28;20437;-79
2023/07/20 06:41:28;;;;;;;11.50;8.03;;;20.10;79.20;;;;;;5000390;28;20503;-76
2023/07/20 06:43:58;;;;;;;9.43;7.27;;;20.60;78.00;;;;;;5001770;28;20431;-76
2023/07/20 06:46:26;;;;;;;9.40;8.47;;;20.80;77.40;;;;;;5001335;28;20802;-77
2023/07/20 06:48:54;;;;;;;8.37;7.57;;;20.80;76.60;;;;;;5001846;28;20439;-79
2023/07/20 06:51:24;;;;;;;14.00;7.67;;;20.80;76.30;;;;;;5002682;28;20586;-78
2023/07/20 06:53:52;;;;;;;8.03;7.20;;;21.10;75.00;;;;;;5002622;28;20756;-79
2023/07/20 06:56:19;;;;;;;9.50;6.97;;;21.30;74.90;;;;;;4995399;28;20453;-79
2023/07/20 06:58:50;;;;;;;7.43;6.73;;;21.60;73.50;;;;;;5017048;28;20445;-76
2023/07/20 07:01:18;;;;;;;7.97;7.40;;;22.30;70.70;;;;;;5007368;28;20508;-79
2023/07/20 07:03:45;;;;;;;8.87;8.00;;;22.80;69.30;;;;;;5004957;28;20511;-76
2023/07/20 07:06:12;;;;;;;10.70;7.30;;;23.30;67.00;;;;;;5005201;28;20449;-76
2023/07/20 07:08:39;;;;;;;6.70;5.97;;;23.10;65.50;;;;;;5004812;28;20477;-76
2023/07/20 07:11:06;;;;;;;6.23;5.73;;;22.90;65.70;;;;;;5005210;28;20520;-79
2023/07/20 07:13:34;;;;;;;6.30;5.70;;;23.00;66.40;;;;;;5004618;28;20435;-76
2023/07/20 07:16:01;;;;;;;8.40;6.07;;;23.00;64.20;;;;;;4988598;28;20520;-77
2023/07/20 07:18:29;;;;;;;9.77;7.23;;;23.20;65.90;;;;;;5006024;28;20448;-80
2023/07/20 07:20:57;;;;;;;8.93;6.60;;;23.60;64.00;;;;;;5005256;28;20450;-76
2023/07/20 07:23:28;;;;;;;6.90;5.57;;;23.70;63.40;;;;;;5004865;28;20421;-76
2023/07/20 07:25:55;;;;;;;7.30;5.73;;;23.60;62.40;;;;;;5004451;28;20746;-77
2023/07/20 07:28:22;;;;;;;8.43;5.67;;;24.30;60.40;;;;;;5004446;28;20450;-78
2023/07/20 07:30:49;;;;;;;5.73;5.27;;;24.90;57.50;;;;;;5005153;28;20435;-77
2023/07/20 07:33:16;;;;;;;9.07;6.43;;;25.30;57.40;;;;;;5004618;28;20410;-80
2023/07/20 07:35:44;;;;;;;8.37;6.30;;;25.60;56.30;;;;;;5004718;28;20480;-76
2023/07/20 07:38:12;;;;;;;5.13;4.70;;;25.70;55.50;;;;;;5004586;28;20514;-79
2023/07/20 07:40:45;;;;;;;6.57;5.30;;;24.70;57.70;;;;;;4988098;28;20808;-77
2023/07/20 07:43:13;;;;;;;7.60;6.90;;;24.00;59.40;;;;;;5004185;28;20747;-75
2023/07/20 07:45:41;;;;;;;6.90;6.27;;;23.30;62.40;;;;;;5005733;28;20435;-75
2023/07/20 07:48:08;;;;;;;7.20;5.60;;;23.60;61.70;;;;;;5007238;28;20410;-79
2023/07/20 07:50:35;;;;;;;6.40;5.77;;;23.50;62.00;;;;;;5005180;28;20496;-77
2023/07/20 07:53:03;;;;;;;6.67;6.00;;;22.60;64.70;;;;;;5004352;28;20502;-77
2023/07/20 07:55:29;;;;;;;6.53;5.87;;;21.90;66.50;;;;;;5004509;28;20429;-78
2023/07/20 07:57:57;;;;;;;6.20;5.60;;;22.20;67.50;;;;;;5003015;28;20417;-78
2023/07/20 08:00:23;;;;;;;8.67;5.23;;;24.00;63.10;;;;;;5003543;28;20461;-78
2023/07/20 08:02:51;;;;;;;6.37;5.77;;;25.30;57.90;;;;;;5002735;28;20432;-78
2023/07/20 08:05:19;;;;;;;6.13;4.77;;;25.70;55.70;;;;;;5004276;28;20435;-80
2023/07/20 08:07:46;;;;;;;5.27;4.87;;;24.80;57.10;;;;;;5004779;28;20615;-78
2023/07/20 08:10:15;;;;;;;11.13;5.00;;;23.90;59.60;;;;;;5004034;28;20435;-77
2023/07/20 08:12:43;;;;;;;5.37;4.70;;;23.70;61.30;;;;;;4987038;28;20746;-76
2023/07/20 08:15:14;;;;;;;4.13;3.83;;;24.90;59.10;;;;;;5003090;28;20503;-81
2023/07/20 08:17:44;;;;;;;4.53;3.97;;;26.70;53.00;;;;;;5003766;28;20438;-76
2023/07/20 08:20:13;;;;;;;4.43;4.07;;;27.00;51.20;;;;;;5003622;28;20732;-77
2023/07/20 08:22:40;;;;;;;4.50;4.10;;;28.00;48.70;;;;;;5004003;28;20447;-75
2023/07/20 08:25:08;;;;;;;4.10;3.80;;;27.50;49.70;;;;;;5003535;28;20640;-77
2023/07/20 08:27:37;;;;;;;4.17;3.73;;;26.30;51.80;;;;;;5003450;28;20529;-76
2023/07/20 08:30:05;;;;;;;3.90;3.70;;;26.00;53.90;;;;;;4986322;28;20436;-75
2023/07/20 08:32:32;;;;;;;4.20;3.63;;;25.50;55.10;;;;;;5003856;28;20742;-79
2023/07/20 08:34:59;;;;;;;4.70;3.20;;;25.40;54.60;;;;;;5002984;28;20447;-78
2023/07/20 08:37:27;;;;;;;5.57;3.73;;;24.60;55.70;;;;;;5003201;28;20522;-77
2023/07/20 08:39:57;;;;;;;3.93;3.60;;;24.00;57.60;;;;;;5003210;28;20436;-82
2023/07/20 08:42:25;;;;;;;3.40;3.10;;;23.20;58.60;;;;;;5003579;28;20476;-77
2023/07/20 08:44:53;;;;;;;4.57;3.70;;;22.60;59.50;;;;;;5003585;28;20417;-79
2023/07/20 08:47:22;;;;;;;4.77;4.07;;;22.60;60.50;;;;;;5004390;28;20443;-78
2023/07/20 08:49:50;;;;;;;7.80;4.23;;;23.20;59.50;;;;;;5003943;28;20438;-79
2023/07/20 08:52:17;;;;;;;5.20;4.47;;;23.50;60.10;;;;;;5001971;28;20414;-76
2023/07/20 08:54:44;;;;;;;4.43;3.93;;;24.50;57.10;;;;;;5003492;28;20410;-76
2023/07/20 08:57:16;;;;;;;4.23;3.83;;;25.90;53.70;;;;;;5002285;28;20446;-76
2023/07/20 08:59:44;;;;;;;4.00;3.70;;;27.00;48.90;;;;;;5002960;28;20427;-76
2023/07/20 09:02:17;;;;;;;4.37;3.97;;;27.70;47.50;;;;;;5003247;28;20446;-75
2023/07/20 09:04:45;;;;;;;5.03;3.70;;;28.30;45.20;;;;;;5003069;28;20425;-75
2023/07/20 09:07:14;;;;;;;4.33;3.47;;;28.60;45.00;;;;;;5001605;28;20462;-76
2023/07/20 09:09:42;;;;;;;5.23;3.20;;;27.90;45.20;;;;;;5002589;28;20792;-76
2023/07/20 09:12:16;;;;;;;3.30;2.90;;;26.90;48.40;;;;;;5002557;28;20700;-78
2023/07/20 09:14:44;;;;;;;4.63;4.27;;;25.90;51.50;;;;;;5001168;28;20471;-77
2023/07/20 09:17:15;;;;;;;5.67;5.13;;;24.20;60.20;;;;;;5002743;28;20450;-77
2023/07/20 09:19:48;;;;;;;5.53;5.03;;;23.30;67.90;;;;;;4985483;28;20435;-78
2023/07/20 09:22:17;;;;;;;4.90;4.57;;;22.50;68.40;;;;;;4984971;28;20467;-79
2023/07/20 09:24:44;;;;;;;6.20;5.60;;;22.80;68.80;;;;;;5002574;28;20418;-75
2023/07/20 09:27:12;;;;;;;4.60;3.90;;;24.00;66.40;;;;;;5002634;28;20459;-77
2023/07/20 09:29:51;;;;;;;3.90;3.60;;;25.10;56.70;;;;;;5001313;28;20519;-77
2023/07/20 09:32:20;;;;;;;3.93;3.53;;;25.50;54.10;;;;;;5002893;28;20498;-78
2023/07/20 09:34:51;;;;;;;7.00;3.00;;;26.00;52.70;;;;;;5002521;28;20473;-77
2023/07/20 09:37:22;;;;;;;3.70;2.90;;;26.50;49.50;;;;;;5003637;28;20471;-77
2023/07/20 09:39:53;;;;;;;4.00;3.47;;;27.00;49.90;;;;;;5005254;28;20494;-79
2023/07/20 09:42:25;;;;;;;3.83;3.47;;;27.00;49.40;;;;;;5002546;28;20420;-76
2023/07/20 09:44:56;;;;;;;4.13;3.83;;;25.90;49.00;;;;;;5002349;28;20452;-77
2023/07/20 09:47:24;;;;;;;13.70;3.50;;;25.50;51.50;;;;;;5002053;28;20443;-80
2023/07/20 09:49:59;;;;;;;3.67;3.37;;;25.00;49.80;;;;;;5002262;28;20431;-81
2023/07/20 09:52:30;;;;;;;3.47;3.17;;;25.20;50.60;;;;;;4985439;28;20835;-78
2023/07/20 09:55:02;;;;;;;2.90;2.70;;;25.10;51.60;;;;;;5003281;28;20413;-76
2023/07/20 09:57:30;;;;;;;3.00;2.70;;;25.30;50.20;;;;;;5001895;28;20696;-78
2023/07/20 09:59:59;;;;;;;5.13;3.97;;;25.30;49.30;;;;;;5010366;28;20508;-79
2023/07/20 10:02:38;;;;;;;2.90;2.50;;;25.80;49.50;;;;;;5015904;28;20442;-77
2023/07/20 10:05:10;;;;;;;3.10;2.83;;;25.90;47.90;;;;;;4989657;28;20855;-76
2023/07/20 10:07:43;;;;;;;3.27;3.07;;;25.90;48.60;;;;;;5002358;28;20422;-78
2023/07/20 10:10:11;;;;;;;3.07;2.60;;;25.70;47.70;;;;;;5001978;28;20685;-79
2023/07/20 10:12:40;;;;;;;2.50;2.30;;;25.20;48.60;;;;;;4988962;28;20451;-78
2023/07/20 10:15:28;;;;;;;3.13;2.80;;;25.10;48.30;;;;;;5002412;28;20397;-76
2023/07/20 10:18:08;;;;;;;2.70;2.50;;;25.00;48.80;;;;;;5002344;28;20478;-80
2023/07/20 10:20:38;;;;;;;3.07;2.87;;;25.10;49.60;;;;;;5001790;28;20611;-77
2023/07/20 10:23:28;;;;;;;4.17;3.10;;;25.10;48.80;;;;;;5000467;28;20450;-78
2023/07/20 10:25:56;;;;;;;2.30;2.10;;;24.90;47.00;;;;;;5001492;28;20461;-77
2023/07/20 10:28:24;;;;;;;3.27;2.30;;;25.00;47.20;;;;;;5001244;28;20447;-77
2023/07/20 10:30:51;;;;;;;3.30;2.17;;;25.20;46.90;;;;;;5001315;28;20800;-77
2023/07/20 10:33:20;;;;;;;3.10;2.83;;;25.20;46.20;;;;;;5003785;28;20775;-78
2023/07/20 10:35:55;;;;;;;2.60;2.30;;;25.10;48.40;;;;;;5005889;28;20494;-82
2023/07/20 10:38:47;;;;;;;2.70;2.40;;;25.60;47.40;;;;;;5005515;28;20498;-80
2023/07/20 10:41:16;;;;;;;4.07;2.60;;;25.30;48.50;;;;;;5005505;28;20680;-77
2023/07/20 10:43:47;;;;;;;2.77;2.50;;;25.10;47.50;;;;;;5005823;28;20419;-76
2023/07/20 10:46:25;;;;;;;2.93;2.70;;;25.30;47.00;;;;;;5004276;28;20431;-77
2023/07/20 10:49:04;;;;;;;2.50;2.27;;;25.60;47.30;;;;;;5005405;28;20406;-80
2023/07/20 10:51:56;;;;;;;5.30;2.60;;;25.30;47.10;;;;;;5005950;28;20794;-77
2023/07/20 10:54:23;;;;;;;3.60;2.57;;;24.70;49.20;;;;;;5004936;28;20390;-81
2023/07/20 10:56:50;;;;;;;2.33;2.20;;;24.60;49.90;;;;;;5005879;28;20475;-81
2023/07/20 10:59:38;;;;;;;2.80;2.60;;;24.50;49.10;;;;;;5005203;28;20458;-81
2023/07/20 11:02:06;;;;;;;4.43;2.60;;;24.80;48.80;;;;;;4989814;28;20409;-77
2023/07/20 11:04:48;;;;;;;3.30;3.00;;;24.90;48.30;;;;;;5005792;28;20417;-77
2023/07/20 11:07:39;;;;;;;3.13;2.83;;;25.00;48.10;;;;;;5005995;28;20417;-77
2023/07/20 11:10:15;;;;;;;4.23;2.50;;;25.10;46.80;;;;;;5004725;28;20435;-76
2023/07/20 11:13:16;;;;;;;3.13;2.57;;;25.40;46.70;;;;;;5005009;28;20812;-79
2023/07/20 11:15:57;;;;;;;3.10;2.60;;;25.60;46.70;;;;;;4987845;28;20733;-79
2023/07/20 11:18:28;;;;;;;3.00;2.57;;;26.00;46.30;;;;;;5004985;28;20658;-78
2023/07/20 11:20:55;;;;;;;2.87;2.67;;;26.40;44.30;;;;;;5004760;28;20623;-77
2023/07/20 11:23:22;;;;;;;3.30;3.00;;;26.70;44.60;;;;;;4987746;28;20443;-76
2023/07/20 11:25:50;;;;;;;3.50;3.30;;;27.00;43.50;;;;;;5004960;28;20467;-77
2023/07/20 11:28:17;;;;;;;3.43;3.20;;;26.90;43.70;;;;;;5004386;28;20440;-78
2023/07/20 11:30:44;;;;;;;4.67;3.60;;;26.40;45.40;;;;;;5004281;28;20810;-76
2023/07/20 11:33:11;;;;;;;12.70;3.47;;;25.00;49.20;;;;;;5004034;28;20782;-80
2023/07/20 11:35:47;;;;;;;8.20;5.03;;;24.10;53.40;;;;;;5004073;28;20444;-78
2023/07/20 11:38:15;;;;;;;7.60;5.30;;;22.90;70.90;;;;;;5002675;28;20541;-77
2023/07/20 11:40:44;;;;;;;5.87;5.37;;;21.10;72.20;;;;;;5003912;28;20694;-80
2023/07/20 11:43:12;;;;;;;9.07;6.03;;;19.60;82.90;;;;;;5003641;28;20444;-80
2023/07/20 11:45:42;;;;;;;8.27;7.47;;;18.90;86.00;;;;;;5006067;28;20409;-81
2023/07/20 11:48:17;;;;;;;10.13;9.33;;;18.80;90.10;;;;;;5007571;28;20484;-80
2023/07/20 11:50:45;;;;;;;10.73;9.93;;;18.80;90.00;;;;;;5004736;28;20494;-77
2023/07/20 11:53:12;;;;;;;10.80;10.00;;;18.50;89.00;;;;;;5003824;28;20615;-78
2023/07/20 11:55:40;;;;;;;11.20;10.23;;;18.40;90.20;;;;;;5003058;28;20422;-77
2023/07/20 11:58:09;;;;;;;14.67;11.93;;;18.40;90.70;;;;;;5004536;28;20493;-78
2023/07/20 12:00:39;;;;;;;11.87;10.83;;;18.50;89.40;;;;;;5003177;28;20471;-79
2023/07/20 12:03:07;;;;;;;11.80;10.93;;;18.60;90.20;;;;;;5003605;28;20581;-81
2023/07/20 12:05:34;;;;;;;11.53;10.53;;;18.80;90.40;;;;;;5002863;28;20465;-82
2023/07/20 12:08:21;;;;;;;12.77;10.73;;;19.10;88.00;;;;;;5003359;28;20607;-81
2023/07/20 12:10:48;;;;;;;10.23;9.33;;;19.30;87.30;;;;;;5004233;28;20959;-77
2023/07/20 12:13:15;;;;;;;9.00;8.40;;;19.60;87.10;;;;;;5002281;28;20449;-78
2023/07/20 12:15:43;;;;;;;8.90;8.30;;;19.50;85.80;;;;;;5003919;28;20523;-79
2023/07/20 12:18:10;;;;;;;6.33;5.93;;;19.70;82.60;;;;;;5002983;28;20634;-77
2023/07/20 12:20:38;;;;;;;5.97;5.37;;;19.90;81.10;;;;;;5002997;28;20680;-76
2023/07/20 12:23:10;;;;;;;5.80;5.20;;;20.30;77.90;;;;;;5003269;28;20535;-76
2023/07/20 12:25:45;;;;;;;5.20;4.80;;;20.90;77.20;;;;;;5003191;28;20426;-79
2023/07/20 12:28:14;;;;;;;7.40;4.73;;;21.50;78.60;;;;;;5002991;28;20420;-77
2023/07/20 12:30:44;;;;;;;4.97;4.53;;;21.80;69.80;;;;;;5002808;28;20587;-77
2023/07/20 12:33:15;;;;;;;4.50;4.10;;;21.70;70.60;;;;;;5003297;28;20435;-76
2023/07/20 12:35:43;;;;;;;4.90;4.53;;;21.50;67.80;;;;;;5003153;28;20791;-79
2023/07/20 12:38:10;;;;;;;5.83;3.87;;;21.60;68.00;;;;;;4985215;28;20455;-79
2023/07/20 12:40:37;;;;;;;4.23;3.93;;;21.70;64.90;;;;;;5002743;28;20762;-78
2023/07/20 12:43:06;;;;;;;4.30;3.93;;;21.70;66.30;;;;;;5002711;28;20409;-77
2023/07/20 12:45:33;;;;;;;4.37;4.07;;;21.90;66.80;;;;;;5001820;28;20447;-80
2023/07/20 12:48:00;;;;;;;7.03;4.93;;;21.90;66.00;;;;;;5003305;28;20482;-77
2023/07/20 12:50:27;;;;;;;4.30;4.00;;;22.20;65.60;;;;;;5001487;28;20709;-81
2023/07/20 12:52:54;;;;;;;4.03;3.70;;;22.30;64.80;;;;;;5002651;28;20536;-77
2023/07/20 12:55:21;;;;;;;4.00;3.70;;;22.30;62.50;;;;;;5000674;28;20467;-76